Buffalo, SC

9:15 PM EDT on August 29, 2014 (GMT -0400)
Hobbysville Rd | Change Station
CLOSE
Current Station
Personal Weather Station
Location: Roebuck, SC
Elevation: 725 ft
Nearby Weather Stations

Elev 725 ft 34.80 °N, 81.98 °W | Updated 23 seconds ago

Clear
Clear
78.8 °F
Feels Like 82 °F
N
0.2
Wind Variable Wind from North
Gusts 0.4 mph

Today
High -- | Low -- °F
--% Chance of Precip.
Yesterday
High -- | Low -- °F
Precip. -- in
6:57 AM 7:57 PM
Waxing Crescent, 18% visible
Pressure 30.10 in
Visibility 10.0 miles
Clouds Clear
Heat Index 82 °F
Dew Point 71 °F
Humidity 76%
Rainfall 0.00 in
Snow Depth Not available.
UV 0 out of 12
Pollen 9.30 out of 12
Ozone Good
PM2.5 Good
Flu Activity Not available.
METAR KSPA 300115Z AUTO 07004KT 10SM CLR 28/22 A3010 RMK AO2

More Conditions Fewer Conditions

Pressure 30.10 in
Visibility 10.0 miles
Clouds Clear
Heat Index 82 °F
Dew Point 71 °F
Humidity 76%
Rainfall 0.00 in
Snow Depth Not available.
UV 0 out of 12
Pollen 9.30 out of 12
Ozone Good
PM2.5 Good
Flu Activity Not available.
METAR KSPA 300115Z AUTO 07004KT 10SM CLR 28/22 A3010 RMK AO2

More Conditions Fewer Conditions

10-Day Weather Forecast

Almanac

Astronomy

Aug. 29, 2014 Rise Set
Actual Time 6:57 AM EDT 7:57 PM EDT
Civil Twilight 6:31 AM EDT 8:23 PM EDT
Nautical Twilight 6:00 AM EDT 8:53 PM EDT
Astronomical Twilight 5:29 AM EDT 9:25 PM EDT
Moon 10:34 AM EDT (8/29) 10:05 PM EDT (8/29)
Length of Visible Light 13h 51m
Length of Day
12h 59m
Tomorrow will be 2m 4s shorter.
Waxing Crescent, 18% of the Moon is Illuminated
Today
Waxing Crescent
Sep 2
First Quarter
Sep 8
Full
Sep 15
Last Quarter
Sep 24
New

Today's Extremes

State Highs State Lows

Community

WunderPhotos

Upload Photos

1,748,395 photos uploaded!

Nearby

Air Quality

  Air Quality AQ Index Pollutant
Yesterday Moderate
OZONE
Yesterday Good
PM2.5
Current Good
OZONE
Current Good
PM2.5
Friday Moderate
OZONE
Saturday Good
OZONE

Snow Depth

Station Depth Elevation
No new snow has been reported.

Earthquake Activity

City Distance Mag. Time & Date
No recent earthquake activity has been reported nearby.
Minimum magnitude displayed is 2.5.

Coastal Water Temperatures

Place Temperature
No Stations Reporting

Nearby Weather Stations